createdAt,value
2019-04-11T00:00:31.295Z,113.27
2019-04-11T00:03:01.387Z,119.27
2019-04-11T00:05:31.120Z,117.80
2019-04-11T00:08:00.163Z,115.93
2019-04-11T00:10:29.787Z,109.10
2019-04-11T00:13:01.100Z,113.97
2019-04-11T00:15:31.023Z,115.57
2019-04-11T00:18:01.133Z,114.63
2019-04-11T00:20:31.893Z,115.40
2019-04-11T00:23:01.924Z,117.67
2019-04-11T00:25:31.733Z,117.27
2019-04-11T00:28:01.962Z,125.43
2019-04-11T00:30:34.384Z,115.20
2019-04-11T00:33:05.693Z,128.10
2019-04-11T00:35:35.622Z,110.23
2019-04-11T00:38:07.723Z,114.43
2019-04-11T00:40:37.720Z,119.80
2019-04-11T00:43:07.495Z,131.90
2019-04-11T00:45:38.051Z,112.00
2019-04-11T00:48:09.015Z,117.77
2019-04-11T00:50:39.177Z,114.47
2019-04-11T00:53:09.760Z,116.30
2019-04-11T00:55:39.881Z,121.13
2019-04-11T00:58:11.988Z,107.17
2019-04-11T01:00:42.969Z,119.60
2019-04-11T01:03:13.731Z,128.30
2019-04-11T01:05:43.656Z,111.17
2019-04-11T01:08:13.681Z,114.50
2019-04-11T01:10:43.664Z,111.67
2019-04-11T01:13:14.334Z,106.40
2019-04-11T01:15:52.388Z,116.33
2019-04-11T01:18:22.287Z,115.83
2019-04-11T01:20:52.095Z,104.60
2019-04-11T01:23:22.763Z,107.03
2019-04-11T01:25:55.304Z,104.27
2019-04-11T01:28:25.149Z,104.00
2019-04-11T01:31:06.610Z,98.37
2019-04-11T01:33:36.372Z,97.67
2019-04-11T01:36:07.020Z,88.40
2019-04-11T01:38:42.077Z,94.50
2019-04-11T01:41:12.165Z,93.07
2019-04-11T01:43:52.715Z,91.03
2019-04-11T01:46:14.057Z,79.53
2019-04-11T01:48:52.124Z,80.83
2019-04-11T01:51:23.406Z,80.23
2019-04-11T01:53:53.204Z,83.00
2019-04-11T01:56:23.196Z,89.10
2019-04-11T01:58:53.131Z,89.40
2019-04-11T02:01:37.029Z,76.10
2019-04-11T02:04:14.023Z,81.37
2019-04-11T02:06:43.879Z,73.73
2019-04-11T02:09:15.849Z,74.60
2019-04-11T02:11:45.778Z,74.63
2019-04-11T02:14:17.826Z,59.87
2019-04-11T02:16:47.428Z,66.83
2019-04-11T02:19:18.307Z,58.80
2019-04-11T02:21:50.082Z,55.57
2019-04-11T02:24:39.676Z,50.30
2019-04-11T02:27:28.281Z,52.67
2019-04-11T02:30:00.959Z,43.10
2019-04-11T02:32:32.005Z,47.90
2019-04-11T02:35:04.364Z,41.20
2019-04-11T02:37:34.575Z,45.10
2019-04-11T02:40:07.606Z,45.13
2019-04-11T02:42:38.944Z,44.33
2019-04-11T02:45:25.075Z,45.87
2019-04-11T02:47:44.046Z,44.03
2019-04-11T02:50:14.904Z,40.00
2019-04-11T02:52:44.448Z,46.97
2019-04-11T02:55:14.960Z,45.13
2019-04-11T02:57:45.935Z,46.73
2019-04-11T03:00:17.563Z,42.57
2019-04-11T03:02:47.950Z,49.33
2019-04-11T03:05:20.738Z,48.20
2019-04-11T03:07:50.425Z,44.60
2019-04-11T03:10:21.055Z,49.73
2019-04-11T03:12:52.699Z,43.70
2019-04-11T03:15:37.574Z,54.10
2019-04-11T03:17:59.058Z,45.07
2019-04-11T03:20:34.923Z,44.00
2019-04-11T03:23:04.909Z,47.17
2019-04-11T03:25:30.676Z,41.30
2019-04-11T03:28:01.989Z,42.60
2019-04-11T03:30:48.154Z,44.80
2019-04-11T03:36:28.161Z,46.17
2019-04-11T03:38:33.128Z,41.17
2019-04-11T03:40:57.200Z,40.90
2019-04-11T03:43:24.221Z,41.70
2019-04-11T03:46:01.923Z,39.60
2019-04-11T03:48:29.040Z,44.27
2019-04-11T03:50:46.795Z,40.03
2019-04-11T03:53:19.281Z,44.27
2019-04-11T03:55:49.529Z,39.93
2019-04-11T03:58:20.227Z,39.83
2019-04-11T04:00:53.480Z,40.53
2019-04-11T04:03:24.602Z,43.07
2019-04-11T04:05:57.317Z,45.27
2019-04-11T04:08:29.153Z,41.60
2019-04-11T04:11:23.148Z,34.07
2019-04-11T04:14:12.797Z,36.70
2019-04-11T04:16:57.359Z,37.67
2019-04-11T04:19:40.229Z,35.87
2019-04-11T04:22:18.688Z,37.57
2019-04-11T04:24:49.789Z,45.30
2019-04-11T04:27:23.214Z,43.40
2019-04-11T04:29:57.281Z,40.43
2019-04-11T04:32:25.124Z,41.23
2019-04-11T04:34:56.367Z,38.00
2019-04-11T04:37:27.318Z,36.90
2019-04-11T04:40:21.205Z,41.97
2019-04-11T04:42:35.896Z,41.17
2019-04-11T04:45:02.727Z,37.43
2019-04-11T04:47:42.391Z,42.07
2019-04-11T04:50:06.162Z,40.53
2019-04-11T04:52:38.170Z,36.60
2019-04-11T04:55:08.588Z,38.90
2019-04-11T04:57:40.549Z,36.90
2019-04-11T05:00:11.747Z,33.80
2019-04-11T05:02:43.982Z,40.93
2019-04-11T05:05:14.086Z,39.10
2019-04-11T05:07:46.340Z,40.33
2019-04-11T05:10:15.742Z,37.47
2019-04-11T05:12:46.072Z,39.93
2019-04-11T05:15:16.695Z,37.23
2019-04-11T05:17:46.792Z,39.50
2019-04-11T05:20:16.656Z,37.27
2019-04-11T05:22:47.262Z,32.17
2019-04-11T05:25:18.205Z,38.53
2019-04-11T05:27:48.045Z,42.27
2019-04-11T05:30:18.788Z,41.20
2019-04-11T05:32:49.327Z,35.40
2019-04-11T05:35:19.175Z,39.53
2019-04-11T05:37:49.584Z,35.73
2019-04-11T05:40:19.627Z,33.63
2019-04-11T05:42:53.405Z,33.87
2019-04-11T05:45:24.198Z,42.83
2019-04-11T05:47:55.052Z,37.30
2019-04-11T05:50:29.667Z,33.47
2019-04-11T05:53:03.481Z,45.47
2019-04-11T05:55:41.346Z,35.90
2019-04-11T05:58:12.735Z,39.97
2019-04-11T06:00:48.901Z,34.30
2019-04-11T06:03:18.878Z,30.40
2019-04-11T06:06:10.895Z,35.53
2019-04-11T06:08:41.997Z,34.80
2019-04-11T06:11:34.806Z,34.20
2019-04-11T06:14:11.140Z,30.13
2019-04-11T06:16:48.824Z,34.60
2019-04-11T06:19:33.803Z,39.77
2019-04-11T06:22:06.636Z,39.03
2019-04-11T06:24:58.565Z,38.07
2019-04-11T06:27:36.000Z,40.00
2019-04-11T06:30:26.356Z,36.90
2019-04-11T06:33:16.507Z,40.53
2019-04-11T06:36:16.133Z,31.90
2019-04-11T06:38:59.811Z,42.10
2019-04-11T06:41:48.570Z,42.27
2019-04-11T06:44:56.338Z,37.37
2019-04-11T06:47:57.091Z,36.67
2019-04-11T06:50:44.189Z,37.80
2019-04-11T06:53:17.484Z,36.90
2019-04-11T06:56:04.493Z,36.80
2019-04-11T06:58:39.487Z,38.03
2019-04-11T07:01:13.933Z,39.27
2019-04-11T07:03:48.999Z,41.83
2019-04-11T07:06:21.772Z,37.97
2019-04-11T07:09:10.059Z,34.60
2019-04-11T07:11:44.810Z,33.67
2019-04-11T07:14:33.681Z,44.57
2019-04-11T07:17:21.036Z,37.17
2019-04-11T07:20:07.067Z,35.20
2019-04-11T07:22:55.306Z,35.40
2019-04-11T07:25:47.389Z,42.03
2019-04-11T07:28:25.256Z,35.30
2019-04-11T07:31:12.864Z,36.37
2019-04-11T07:34:11.442Z,38.23
2019-04-11T07:37:06.868Z,36.43
2019-04-11T07:39:56.208Z,39.20
2019-04-11T07:43:01.835Z,41.30
2019-04-11T07:45:47.139Z,37.37
2019-04-11T07:48:21.450Z,35.77
2019-04-11T07:50:50.772Z,35.90
2019-04-11T07:53:22.352Z,38.93
2019-04-11T07:55:53.131Z,36.70
2019-04-11T07:58:25.124Z,39.97
2019-04-11T08:01:27.094Z,85.20
2019-04-11T08:04:31.945Z,41.87
2019-04-11T08:07:19.929Z,37.43
2019-04-11T08:09:55.665Z,38.17
2019-04-11T08:12:28.329Z,38.33
2019-04-11T08:15:33.428Z,36.93
2019-04-11T08:18:10.351Z,37.60
2019-04-11T08:21:17.767Z,46.53
2019-04-11T08:23:51.939Z,41.00
2019-04-11T08:26:38.960Z,34.37
2019-04-11T08:29:13.359Z,38.23
2019-04-11T08:31:57.769Z,42.00
2019-04-11T08:34:31.191Z,41.00
2019-04-11T08:37:19.339Z,35.30
2019-04-11T08:39:51.990Z,37.77
2019-04-11T08:42:50.971Z,35.27
2019-04-11T08:45:21.724Z,38.77
2019-04-11T08:47:54.331Z,38.93
2019-04-11T08:50:28.272Z,39.30
2019-04-11T08:53:32.972Z,43.50
2019-04-11T08:56:03.932Z,41.63
2019-04-11T08:58:57.303Z,40.87
2019-04-11T09:01:27.761Z,39.43
2019-04-11T09:04:15.186Z,37.83
2019-04-11T09:06:45.085Z,38.17
2019-04-11T09:09:48.780Z,41.83
2019-04-11T09:12:18.573Z,39.80
2019-04-11T09:15:16.934Z,37.00
2019-04-11T09:17:58.886Z,40.37
2019-04-11T09:20:40.182Z,45.67
2019-04-11T09:23:12.006Z,40.30
2019-04-11T09:25:59.614Z,41.13
2019-04-11T09:28:49.337Z,40.93
2019-04-11T09:31:42.178Z,39.13
2019-04-11T09:34:30.282Z,43.77
2019-04-11T09:37:07.783Z,44.87
2019-04-11T09:39:55.253Z,37.70
2019-04-11T09:42:43.010Z,38.70
2019-04-11T09:45:27.785Z,48.23
2019-04-11T09:48:24.592Z,38.87
2019-04-11T09:51:15.895Z,48.70
2019-04-11T09:53:48.391Z,49.13
2019-04-11T09:56:36.432Z,43.63
2019-04-11T09:59:12.278Z,45.30
2019-04-11T10:02:10.097Z,51.00
2019-04-11T10:04:41.678Z,47.50
2019-04-11T10:07:30.449Z,44.23
2019-04-11T10:10:22.433Z,43.30
2019-04-11T10:13:22.106Z,44.93
2019-04-11T10:16:17.963Z,38.87
2019-04-11T10:18:59.845Z,43.13
2019-04-11T10:21:31.071Z,41.80
2019-04-11T10:24:20.600Z,41.43
2019-04-11T10:26:54.564Z,41.07
2019-04-11T10:29:50.418Z,42.87
2019-04-11T10:32:23.388Z,44.53
2019-04-11T10:35:21.944Z,47.30
2019-04-11T10:37:52.114Z,48.40
2019-04-11T10:40:44.146Z,44.87
2019-04-11T10:43:22.875Z,47.23
2019-04-11T10:46:07.142Z,50.50
2019-04-11T10:48:48.793Z,44.77
2019-04-11T10:51:35.903Z,45.07
2019-04-11T10:54:07.365Z,40.40
2019-04-11T10:56:57.842Z,43.93
2019-04-11T10:59:30.332Z,44.20
2019-04-11T11:02:09.010Z,41.10
2019-04-11T11:07:29.183Z,47.43
2019-04-11T11:10:04.590Z,45.37
2019-04-11T11:13:01.949Z,43.73
2019-04-11T11:15:35.798Z,49.00
2019-04-11T11:19:02.031Z,44.10
2019-04-11T11:21:11.343Z,46.47
2019-04-11T11:23:58.891Z,49.80
2019-04-11T11:26:32.018Z,44.20
2019-04-11T11:29:21.245Z,48.80
2019-04-11T11:32:19.034Z,55.13
2019-04-11T11:35:07.559Z,48.00
2019-04-11T11:37:55.322Z,46.17
2019-04-11T11:40:56.267Z,45.13
2019-04-11T11:43:27.985Z,50.53
2019-04-11T11:46:31.265Z,52.20
2019-04-11T11:49:08.055Z,47.17
2019-04-11T11:52:00.429Z,48.90
2019-04-11T11:54:35.922Z,46.40
2019-04-11T11:57:10.714Z,45.03
2019-04-11T11:59:44.928Z,55.30
2019-04-11T12:02:25.039Z,50.03
2019-04-11T12:05:16.356Z,52.97
2019-04-11T12:08:10.823Z,59.93
2019-04-11T12:10:46.502Z,51.80
2019-04-11T12:13:45.314Z,55.37
2019-04-11T12:16:52.019Z,59.13
2019-04-11T12:19:28.848Z,55.87
2019-04-11T12:21:59.965Z,54.40
2019-04-11T12:24:52.401Z,52.20
2019-04-11T12:27:50.069Z,52.37
2019-04-11T12:30:41.997Z,59.67
2019-04-11T12:33:29.804Z,51.17
2019-04-11T12:36:18.791Z,57.67
2019-04-11T12:39:16.328Z,58.30
2019-04-11T12:42:13.981Z,56.43
2019-04-11T12:45:01.324Z,64.83
2019-04-11T12:47:43.555Z,54.53
2019-04-11T12:50:32.543Z,59.80
2019-04-11T12:53:04.377Z,59.23
2019-04-11T12:55:51.740Z,61.23
2019-04-11T12:58:46.477Z,54.63
2019-04-11T13:01:33.925Z,56.50
2019-04-11T13:04:28.404Z,59.60
2019-04-11T13:07:09.736Z,58.30
2019-04-11T13:09:46.022Z,55.90
2019-04-11T13:12:41.866Z,56.70
2019-04-11T13:15:20.713Z,60.80
2019-04-11T13:18:17.245Z,58.63
2019-04-11T13:21:17.936Z,59.23
2019-04-11T13:24:09.520Z,58.63
2019-04-11T13:27:10.280Z,58.93
2019-04-11T13:30:05.141Z,59.20
2019-04-11T13:33:12.284Z,59.40
2019-04-11T13:36:03.789Z,56.17
2019-04-11T13:38:39.825Z,64.80
2019-04-11T13:41:27.113Z,68.57
2019-04-11T13:44:10.222Z,65.83
2019-04-11T13:46:58.955Z,60.80
2019-04-11T13:49:41.019Z,58.93
2019-04-11T13:52:30.106Z,66.53
2019-04-11T13:55:04.548Z,63.77
2019-04-11T13:57:59.177Z,60.90
2019-04-11T14:00:48.718Z,68.60
2019-04-11T14:03:49.509Z,68.83
2019-04-11T14:06:34.533Z,67.10
2019-04-11T14:09:38.146Z,62.43
2019-04-11T14:12:12.788Z,58.80
2019-04-11T14:14:45.343Z,69.40
2019-04-11T14:17:49.363Z,63.97
2019-04-11T14:20:32.033Z,73.03
2019-04-11T14:23:33.179Z,67.67
2019-04-11T14:26:16.222Z,63.57
2019-04-11T14:28:49.103Z,68.83
2019-04-11T14:31:36.332Z,65.17
2019-04-11T14:34:33.846Z,68.10
2019-04-11T14:37:21.243Z,70.20
2019-04-11T14:39:53.164Z,66.17
2019-04-11T14:42:45.984Z,72.30
2019-04-11T14:45:36.580Z,67.40
2019-04-11T14:48:22.608Z,62.70
2019-04-11T14:51:05.204Z,72.93
2019-04-11T14:53:52.455Z,67.60
2019-04-11T14:56:22.911Z,77.77
2019-04-11T14:59:26.978Z,74.93
2019-04-11T15:02:02.719Z,64.20
2019-04-11T15:04:50.384Z,67.10
2019-04-11T15:07:20.122Z,78.07
2019-04-11T15:10:09.052Z,67.23
2019-04-11T15:12:38.736Z,71.97
2019-04-11T15:15:26.886Z,67.07
2019-04-11T15:17:58.868Z,86.53
2019-04-11T15:20:37.127Z,70.00
2019-04-11T15:23:16.547Z,72.77
2019-04-11T15:26:10.167Z,73.47
2019-04-11T15:28:51.851Z,76.70
2019-04-11T15:31:39.851Z,68.43
2019-04-11T15:34:28.603Z,71.03
2019-04-11T15:37:30.446Z,70.23
2019-04-11T15:40:24.880Z,68.80
2019-04-11T15:43:13.585Z,77.07
2019-04-11T15:46:01.421Z,75.70
2019-04-11T15:48:59.194Z,73.47
2019-04-11T15:51:36.809Z,75.13
2019-04-11T15:54:25.772Z,75.13
2019-04-11T15:57:01.397Z,68.00
2019-04-11T15:59:57.025Z,72.87
2019-04-11T16:03:02.009Z,69.53
2019-04-11T16:05:50.775Z,73.30
2019-04-11T16:08:55.762Z,65.03
2019-04-11T16:11:53.442Z,70.67
2019-04-11T16:14:28.686Z,71.50
2019-04-11T16:17:35.644Z,79.33
2019-04-11T16:20:20.476Z,73.93
2019-04-11T16:23:16.222Z,79.23
2019-04-11T16:25:49.247Z,66.10
2019-04-11T16:28:53.159Z,76.57
2019-04-11T16:31:26.040Z,64.10
2019-04-11T16:34:15.828Z,78.47
2019-04-11T16:36:51.256Z,70.47
2019-04-11T16:39:50.166Z,69.13
2019-04-11T16:42:24.123Z,72.30
2019-04-11T16:45:19.644Z,76.93
2019-04-11T16:48:06.250Z,77.40
2019-04-11T16:50:36.058Z,70.33
2019-04-11T16:53:10.433Z,76.57
2019-04-11T16:55:41.944Z,66.00
2019-04-11T16:58:14.807Z,80.13
2019-04-11T17:00:42.025Z,78.87
2019-04-11T17:03:12.123Z,73.63
2019-04-11T17:05:45.590Z,73.23
2019-04-11T17:08:26.500Z,72.83
2019-04-11T17:11:13.407Z,76.43
2019-04-11T17:13:43.661Z,70.33
2019-04-11T17:16:15.716Z,76.00
2019-04-11T17:18:50.087Z,75.13
2019-04-11T17:21:23.008Z,70.30
2019-04-11T17:23:52.200Z,72.53
2019-04-11T17:26:23.229Z,74.33
2019-04-11T17:28:54.608Z,69.10
2019-04-11T17:31:25.984Z,67.83
2019-04-11T17:34:01.588Z,68.93
2019-04-11T17:36:30.834Z,63.83
2019-04-11T17:39:00.017Z,73.33
2019-04-11T17:41:29.696Z,73.17
2019-04-11T17:43:59.577Z,69.30
2019-04-11T17:46:29.389Z,61.57
2019-04-11T17:48:59.078Z,70.10
2019-04-11T17:51:28.938Z,70.00
2019-04-11T17:54:01.275Z,68.77
2019-04-11T17:56:30.265Z,62.17
2019-04-11T17:59:00.047Z,62.40
2019-04-11T18:01:29.865Z,66.77
2019-04-11T18:03:59.751Z,69.23
2019-04-11T18:06:29.568Z,64.87
2019-04-11T18:08:59.354Z,73.33
2019-04-11T18:11:29.354Z,62.47
2019-04-11T18:14:01.007Z,66.43
2019-04-11T18:16:31.636Z,61.50
2019-04-11T18:19:05.756Z,63.20
2019-04-11T18:21:34.855Z,68.50
2019-04-11T18:24:04.929Z,65.70
2019-04-11T18:26:34.723Z,71.53
2019-04-11T18:29:05.592Z,59.20
2019-04-11T18:31:35.497Z,59.03
2019-04-11T18:34:05.163Z,66.90
2019-04-11T18:36:37.230Z,64.20
2019-04-11T18:39:08.069Z,65.37
2019-04-11T18:41:37.944Z,55.20
2019-04-11T18:44:09.638Z,58.50
2019-04-11T18:46:39.349Z,58.20
2019-04-11T18:49:09.418Z,57.27
2019-04-11T18:51:39.130Z,51.07
2019-04-11T18:54:09.092Z,50.00
2019-04-11T18:56:39.940Z,48.50
2019-04-11T18:59:10.803Z,55.17
2019-04-11T19:01:40.519Z,50.73
2019-04-11T19:04:12.013Z,53.70
2019-04-11T19:06:43.018Z,56.97
2019-04-11T19:09:14.869Z,49.63
2019-04-11T19:11:46.368Z,50.20
2019-04-11T19:14:16.702Z,52.27
2019-04-11T19:16:46.922Z,49.77
2019-04-11T19:19:18.368Z,47.43
2019-04-11T19:21:51.084Z,56.00
2019-04-11T19:24:20.618Z,43.27
2019-04-11T19:26:51.767Z,46.00
2019-04-11T19:29:24.850Z,49.63
2019-04-11T19:31:54.041Z,51.30
2019-04-11T19:34:24.847Z,48.30
2019-04-11T19:36:55.652Z,47.07
2019-04-11T19:39:25.533Z,49.77
2019-04-11T19:41:55.544Z,49.30
2019-04-11T19:44:26.277Z,46.60
2019-04-11T19:46:56.191Z,42.83
2019-04-11T19:49:28.761Z,46.00
2019-04-11T19:51:58.667Z,49.50
2019-04-11T19:54:32.716Z,48.47
2019-04-11T19:57:07.226Z,45.97
2019-04-11T19:59:36.947Z,42.73
2019-04-11T20:02:07.112Z,41.77
2019-04-11T20:04:37.997Z,50.30
2019-04-11T20:07:07.766Z,50.20
2019-04-11T20:09:37.940Z,49.53
2019-04-11T20:12:09.079Z,46.93
2019-04-11T20:14:41.011Z,43.23
2019-04-11T20:17:10.729Z,44.00
2019-04-11T20:19:40.637Z,46.60
2019-04-11T20:22:10.712Z,45.40
2019-04-11T20:24:43.155Z,45.97
2019-04-11T20:27:12.126Z,46.37
2019-04-11T20:29:42.102Z,42.73
2019-04-11T20:32:13.800Z,45.57
2019-04-11T20:34:44.019Z,46.30
2019-04-11T20:37:13.850Z,46.93
2019-04-11T20:39:46.360Z,43.77
2019-04-11T20:42:17.319Z,37.13
2019-04-11T20:44:47.088Z,44.90
2019-04-11T20:47:17.017Z,43.80
2019-04-11T20:49:49.688Z,37.60
2019-04-11T20:52:20.829Z,40.90
2019-04-11T20:54:50.671Z,41.60
2019-04-11T20:57:26.036Z,42.30
2019-04-11T20:59:52.262Z,42.03
2019-04-11T21:02:22.107Z,40.57
2019-04-11T21:04:53.544Z,45.60
2019-04-11T21:07:23.289Z,39.47
2019-04-11T21:09:53.659Z,44.30
2019-04-11T21:12:24.517Z,41.83
2019-04-11T21:14:54.299Z,38.87
2019-04-11T21:17:25.082Z,43.40
2019-04-11T21:19:56.572Z,40.90
2019-04-11T21:22:26.323Z,46.30
2019-04-11T21:24:59.530Z,40.63
2019-04-11T21:27:30.004Z,40.10
2019-04-11T21:30:00.612Z,44.60
2019-04-11T21:32:31.959Z,42.83
2019-04-11T21:35:03.094Z,38.17
2019-04-11T21:37:33.109Z,44.50
2019-04-11T21:40:03.476Z,42.17
2019-04-11T21:42:36.082Z,41.30
2019-04-11T21:45:07.741Z,50.57
2019-04-11T21:47:40.088Z,45.83
2019-04-11T21:50:11.133Z,40.13
2019-04-11T21:52:43.376Z,38.53
2019-04-11T21:55:16.005Z,45.60
2019-04-11T21:57:48.284Z,57.23
2019-04-11T22:00:23.086Z,42.70
2019-04-11T22:02:54.378Z,40.87
2019-04-11T22:05:28.933Z,45.10
2019-04-11T22:07:56.604Z,35.47
2019-04-11T22:10:26.888Z,40.77
2019-04-11T22:12:56.730Z,41.50
2019-04-11T22:15:42.166Z,42.67
2019-04-11T22:18:10.178Z,41.70
2019-04-11T22:20:39.830Z,41.93
2019-04-11T22:23:09.580Z,39.00
2019-04-11T22:25:39.399Z,39.33
2019-04-11T22:28:09.091Z,39.87
2019-04-11T22:30:38.883Z,45.50
2019-04-11T22:33:18.923Z,40.93
2019-04-11T22:35:50.412Z,40.37
2019-04-11T22:38:21.024Z,46.53
2019-04-11T22:40:51.206Z,46.83
2019-04-11T22:43:24.435Z,41.17
2019-04-11T22:45:53.493Z,40.03
2019-04-11T22:48:24.186Z,41.63
2019-04-11T22:50:54.035Z,41.20
2019-04-11T22:53:24.790Z,42.27
2019-04-11T22:55:56.090Z,44.83
2019-04-11T22:58:25.828Z,40.80
2019-04-11T23:00:56.649Z,45.73
2019-04-11T23:03:30.298Z,42.00
2019-04-11T23:06:00.253Z,43.70
2019-04-11T23:08:30.029Z,46.10
2019-04-11T23:10:59.847Z,44.70
2019-04-11T23:13:30.283Z,45.63
2019-04-11T23:16:00.257Z,40.67
2019-04-11T23:18:30.833Z,41.13
2019-04-11T23:21:01.492Z,43.30
2019-04-11T23:23:31.924Z,45.00
2019-04-11T23:26:01.628Z,46.47
2019-04-11T23:28:31.451Z,42.20
2019-04-11T23:31:01.158Z,40.50
2019-04-11T23:33:31.035Z,42.33
2019-04-11T23:36:00.673Z,43.83
2019-04-11T23:38:30.522Z,42.70
2019-04-11T23:41:00.205Z,43.20
2019-04-11T23:43:30.846Z,45.27
2019-04-11T23:46:00.546Z,42.90
2019-04-11T23:48:30.369Z,43.67
2019-04-11T23:51:00.114Z,43.23
2019-04-11T23:53:29.979Z,34.20
2019-04-11T23:56:00.168Z,41.00
2019-04-11T23:58:32.077Z,35.70
